Ana Sayfa
METAR-TAF:

METAR-TAF

Havaalanları :

Kalküta, Hindistan

Enlem: 22-39N, Boylam: 088-27E, yükseklik: 4 m

Güncel hava durumu gözlemi

Rapor saat 16:30 UTC de 8 dakika önce yapıldı.
Rüzgar güney/güneybatıdan 10 kt
Sıcaklık 30°C
Nem 79%
Basınç 1005 hPa
Görüş mesafesi: 2800 m
2000 ft yükseklikte az bulutlu
Toz Pusu

METAR: VECC 211630Z 20010KT 2800 HZ FEW020 30/26 Q1005 NOSIG

Saat: 22:08 (16:38 UTC)

Tahmin

Rapor saat 14:00 UTC de 2 saat ve 38 dakika önce yapıldı.
Ayın 21'si saat 15 UTC'den ayın 21'si saat 24 UTC'ye kadar geçerli Tahmin
Rüzgar güneydan 6 kt
Görüş mesafesi: 3000 m
2000 ft yükseklikte parçalı bulutlu
10000 ft yükseklikte parçalı bulutlu
Toz Pusu
Dönüşüyor
ayın 21'si saat 22 UTC'den ayın 21'si saat 24 UTC'ye kadar
Görüş mesafesi: 2500 m
Toz Pusu

TAF: VECC 211400Z 2115/2124 18006KT 3000 HZ SCT020 SCT100 BECMG 2122/2124 2500 HZ

4.000'den fazla havaalanı için hava durumu gözlemleri ve tahminleri (METAR ve TAF raporları).

Kullanılabilir istasyonlar harita üzerinde sarı ve kırmızı noktalarla gösterilir.

İstasyonun adını görmek için fareyi noktanın üzerinde gezdirin.

Sonrasında hava gözlem ve tahminlerini görmek için tıklayın.

Haritayı değiştirmek için: yaklaştırmak için siyah artı işaretli yeşil düğmeye ve uzaklaştırmak için de eksi işaretli düğmeye hızla tıklayın; bitişik haritalar için yeşil okları kullanın.


METAR-TAF: